sensor_id;sensor_type;location;lat;lon;timestamp;temperature;humidity
9103;DHT22;4587;51.434;6.788;2023-05-10T00:02:24;14.90;99.90
9103;DHT22;4587;51.434;6.788;2023-05-10T00:04:50;14.90;99.90
9103;DHT22;4587;51.434;6.788;2023-05-10T00:07:15;14.80;99.90
9103;DHT22;4587;51.434;6.788;2023-05-10T00:09:43;14.80;99.90
9103;DHT22;4587;51.434;6.788;2023-05-10T00:12:08;14.80;99.90
9103;DHT22;4587;51.434;6.788;2023-05-10T00:14:34;14.80;99.90
9103;DHT22;4587;51.434;6.788;2023-05-10T00:17:00;14.80;99.90
9103;DHT22;4587;51.434;6.788;2023-05-10T00:19:26;14.80;99.90
9103;DHT22;4587;51.434;6.788;2023-05-10T00:21:51;14.80;99.90
9103;DHT22;4587;51.434;6.788;2023-05-10T00:24:17;14.70;99.90
9103;DHT22;4587;51.434;6.788;2023-05-10T00:26:42;14.70;99.90
9103;DHT22;4587;51.434;6.788;2023-05-10T00:29:08;14.60;99.90
9103;DHT22;4587;51.434;6.788;2023-05-10T00:31:34;14.60;99.90
9103;DHT22;4587;51.434;6.788;2023-05-10T00:33:59;14.60;99.90
9103;DHT22;4587;51.434;6.788;2023-05-10T00:36:25;14.60;99.90
9103;DHT22;4587;51.434;6.788;2023-05-10T00:38:51;14.60;99.90
9103;DHT22;4587;51.434;6.788;2023-05-10T00:41:16;14.60;99.90
9103;DHT22;4587;51.434;6.788;2023-05-10T00:43:42;14.60;99.90
9103;DHT22;4587;51.434;6.788;2023-05-10T00:46:08;14.50;99.90
9103;DHT22;4587;51.434;6.788;2023-05-10T00:48:34;14.50;99.90
9103;DHT22;4587;51.434;6.788;2023-05-10T00:51:01;14.50;99.90
9103;DHT22;4587;51.434;6.788;2023-05-10T00:53:27;14.40;99.90
9103;DHT22;4587;51.434;6.788;2023-05-10T00:55:53;14.40;99.90
9103;DHT22;4587;51.434;6.788;2023-05-10T00:58:18;14.40;99.90
9103;DHT22;4587;51.434;6.788;2023-05-10T01:00:46;14.40;99.90
9103;DHT22;4587;51.434;6.788;2023-05-10T01:03:12;14.40;99.90
9103;DHT22;4587;51.434;6.788;2023-05-10T01:05:38;14.40;99.90
9103;DHT22;4587;51.434;6.788;2023-05-10T01:08:04;14.40;99.90
9103;DHT22;4587;51.434;6.788;2023-05-10T01:10:30;14.50;99.90
9103;DHT22;4587;51.434;6.788;2023-05-10T01:12:56;14.50;99.90
9103;DHT22;4587;51.434;6.788;2023-05-10T01:15:22;14.50;99.90
9103;DHT22;4587;51.434;6.788;2023-05-10T01:17:48;14.50;99.90
9103;DHT22;4587;51.434;6.788;2023-05-10T01:20:14;14.40;99.90
9103;DHT22;4587;51.434;6.788;2023-05-10T01:23:17;14.40;99.90
9103;DHT22;4587;51.434;6.788;2023-05-10T01:26:17;14.40;99.90
9103;DHT22;4587;51.434;6.788;2023-05-10T01:29:18;14.40;99.90
9103;DHT22;4587;51.434;6.788;2023-05-10T01:35:05;14.50;99.90
9103;DHT22;4587;51.434;6.788;2023-05-10T01:37:42;14.40;99.90
9103;DHT22;4587;51.434;6.788;2023-05-10T01:40:39;14.40;99.90
9103;DHT22;4587;51.434;6.788;2023-05-10T01:43:11;14.40;99.90
9103;DHT22;4587;51.434;6.788;2023-05-10T01:45:54;14.30;99.90
9103;DHT22;4587;51.434;6.788;2023-05-10T01:48:22;14.30;99.90
9103;DHT22;4587;51.434;6.788;2023-05-10T01:50:48;14.20;99.90
9103;DHT22;4587;51.434;6.788;2023-05-10T01:53:18;14.20;99.90
9103;DHT22;4587;51.434;6.788;2023-05-10T01:55:48;14.20;99.90
9103;DHT22;4587;51.434;6.788;2023-05-10T01:58:33;14.10;99.90
9103;DHT22;4587;51.434;6.788;2023-05-10T02:01:03;14.10;99.90
9103;DHT22;4587;51.434;6.788;2023-05-10T02:03:31;14.10;99.90
9103;DHT22;4587;51.434;6.788;2023-05-10T02:05:58;14.00;99.90
9103;DHT22;4587;51.434;6.788;2023-05-10T02:08:24;14.10;99.90
9103;DHT22;4587;51.434;6.788;2023-05-10T02:10:52;14.10;99.90
9103;DHT22;4587;51.434;6.788;2023-05-10T02:13:19;14.00;99.90
9103;DHT22;4587;51.434;6.788;2023-05-10T02:15:48;14.00;99.90
9103;DHT22;4587;51.434;6.788;2023-05-10T02:18:14;14.10;99.90
9103;DHT22;4587;51.434;6.788;2023-05-10T02:20:42;14.20;99.90
9103;DHT22;4587;51.434;6.788;2023-05-10T02:23:08;14.10;99.90
9103;DHT22;4587;51.434;6.788;2023-05-10T02:25:35;14.10;99.90
9103;DHT22;4587;51.434;6.788;2023-05-10T02:28:03;14.20;99.90
9103;DHT22;4587;51.434;6.788;2023-05-10T02:30:31;14.20;99.90
9103;DHT22;4587;51.434;6.788;2023-05-10T02:32:57;14.20;99.90
9103;DHT22;4587;51.434;6.788;2023-05-10T02:35:26;14.20;99.90
9103;DHT22;4587;51.434;6.788;2023-05-10T02:37:52;14.10;99.90
9103;DHT22;4587;51.434;6.788;2023-05-10T02:40:19;14.10;99.90
9103;DHT22;4587;51.434;6.788;2023-05-10T02:42:47;14.10;99.90
9103;DHT22;4587;51.434;6.788;2023-05-10T02:45:18;14.10;99.90
9103;DHT22;4587;51.434;6.788;2023-05-10T02:47:44;13.70;99.90
9103;DHT22;4587;51.434;6.788;2023-05-10T02:50:10;14.10;99.90
9103;DHT22;4587;51.434;6.788;2023-05-10T02:52:59;14.10;99.90
9103;DHT22;4587;51.434;6.788;2023-05-10T02:55:27;14.20;99.90
9103;DHT22;4587;51.434;6.788;2023-05-10T02:58:00;14.10;99.90
9103;DHT22;4587;51.434;6.788;2023-05-10T03:00:26;14.20;99.90
9103;DHT22;4587;51.434;6.788;2023-05-10T03:02:52;14.20;99.90
9103;DHT22;4587;51.434;6.788;2023-05-10T03:05:18;14.20;99.90
9103;DHT22;4587;51.434;6.788;2023-05-10T03:07:44;14.20;99.90
9103;DHT22;4587;51.434;6.788;2023-05-10T03:10:10;14.20;99.90
9103;DHT22;4587;51.434;6.788;2023-05-10T03:13:10;14.20;99.90
9103;DHT22;4587;51.434;6.788;2023-05-10T03:15:47;14.20;99.90
9103;DHT22;4587;51.434;6.788;2023-05-10T03:18:33;14.20;99.90
9103;DHT22;4587;51.434;6.788;2023-05-10T03:21:03;14.20;99.90
9103;DHT22;4587;51.434;6.788;2023-05-10T03:23:37;14.30;99.90
9103;DHT22;4587;51.434;6.788;2023-05-10T03:26:05;14.30;99.90
9103;DHT22;4587;51.434;6.788;2023-05-10T03:28:33;14.30;99.90
9103;DHT22;4587;51.434;6.788;2023-05-10T03:30:59;14.30;99.90
9103;DHT22;4587;51.434;6.788;2023-05-10T03:33:25;14.30;99.90
9103;DHT22;4587;51.434;6.788;2023-05-10T03:35:50;14.30;99.90
9103;DHT22;4587;51.434;6.788;2023-05-10T03:38:16;14.30;99.90
9103;DHT22;4587;51.434;6.788;2023-05-10T03:40:41;14.30;99.90
9103;DHT22;4587;51.434;6.788;2023-05-10T03:43:07;14.20;99.90
9103;DHT22;4587;51.434;6.788;2023-05-10T03:45:33;14.30;99.90
9103;DHT22;4587;51.434;6.788;2023-05-10T03:47:58;14.30;99.90
9103;DHT22;4587;51.434;6.788;2023-05-10T03:50:24;14.30;99.90
9103;DHT22;4587;51.434;6.788;2023-05-10T03:52:50;14.30;99.90
9103;DHT22;4587;51.434;6.788;2023-05-10T03:55:15;14.30;99.90
9103;DHT22;4587;51.434;6.788;2023-05-10T03:57:42;14.30;99.90
9103;DHT22;4587;51.434;6.788;2023-05-10T04:00:08;14.40;99.90
9103;DHT22;4587;51.434;6.788;2023-05-10T04:02:33;14.40;99.90
9103;DHT22;4587;51.434;6.788;2023-05-10T04:04:59;14.40;99.90
9103;DHT22;4587;51.434;6.788;2023-05-10T04:07:24;14.40;99.90
9103;DHT22;4587;51.434;6.788;2023-05-10T04:09:50;14.40;99.90
9103;DHT22;4587;51.434;6.788;2023-05-10T04:12:16;14.40;99.90
9103;DHT22;4587;51.434;6.788;2023-05-10T04:14:41;14.40;99.90
9103;DHT22;4587;51.434;6.788;2023-05-10T04:17:07;14.40;99.90
9103;DHT22;4587;51.434;6.788;2023-05-10T04:19:33;14.40;99.90
9103;DHT22;4587;51.434;6.788;2023-05-10T04:21:59;14.40;99.90
9103;DHT22;4587;51.434;6.788;2023-05-10T04:24:25;14.30;99.90
9103;DHT22;4587;51.434;6.788;2023-05-10T04:26:50;14.30;99.90
9103;DHT22;4587;51.434;6.788;2023-05-10T04:29:16;14.30;99.90
9103;DHT22;4587;51.434;6.788;2023-05-10T04:31:42;14.30;99.90
9103;DHT22;4587;51.434;6.788;2023-05-10T04:34:07;14.30;99.90
9103;DHT22;4587;51.434;6.788;2023-05-10T04:36:33;14.30;99.90
9103;DHT22;4587;51.434;6.788;2023-05-10T04:39:01;14.40;99.90
9103;DHT22;4587;51.434;6.788;2023-05-10T04:41:28;14.40;99.90
9103;DHT22;4587;51.434;6.788;2023-05-10T04:43:54;14.40;99.90
9103;DHT22;4587;51.434;6.788;2023-05-10T04:46:19;14.50;99.90
9103;DHT22;4587;51.434;6.788;2023-05-10T04:48:45;14.60;99.90
9103;DHT22;4587;51.434;6.788;2023-05-10T04:51:11;14.50;99.90
9103;DHT22;4587;51.434;6.788;2023-05-10T04:53:36;14.60;99.90
9103;DHT22;4587;51.434;6.788;2023-05-10T04:56:02;14.60;99.90
9103;DHT22;4587;51.434;6.788;2023-05-10T04:58:27;14.60;99.90
9103;DHT22;4587;51.434;6.788;2023-05-10T05:00:53;14.60;99.90
9103;DHT22;4587;51.434;6.788;2023-05-10T05:03:19;14.60;99.90
9103;DHT22;4587;51.434;6.788;2023-05-10T05:05:44;14.60;99.90
9103;DHT22;4587;51.434;6.788;2023-05-10T05:08:10;14.60;99.90
9103;DHT22;4587;51.434;6.788;2023-05-10T05:10:35;14.60;99.90
9103;DHT22;4587;51.434;6.788;2023-05-10T05:13:01;14.50;99.90
9103;DHT22;4587;51.434;6.788;2023-05-10T05:15:27;14.50;99.90
9103;DHT22;4587;51.434;6.788;2023-05-10T05:17:53;14.50;99.90
9103;DHT22;4587;51.434;6.788;2023-05-10T05:20:18;14.60;99.90
9103;DHT22;4587;51.434;6.788;2023-05-10T05:22:44;14.60;99.90
9103;DHT22;4587;51.434;6.788;2023-05-10T05:25:10;14.60;99.90
9103;DHT22;4587;51.434;6.788;2023-05-10T05:27:36;14.60;99.90
9103;DHT22;4587;51.434;6.788;2023-05-10T05:30:02;14.60;99.90
9103;DHT22;4587;51.434;6.788;2023-05-10T05:32:28;14.60;99.90
9103;DHT22;4587;51.434;6.788;2023-05-10T05:34:54;14.60;99.90
9103;DHT22;4587;51.434;6.788;2023-05-10T05:37:20;14.70;99.90
9103;DHT22;4587;51.434;6.788;2023-05-10T05:39:46;14.80;99.90
9103;DHT22;4587;51.434;6.788;2023-05-10T05:42:13;14.80;99.90
9103;DHT22;4587;51.434;6.788;2023-05-10T05:44:39;14.90;99.90
9103;DHT22;4587;51.434;6.788;2023-05-10T05:47:05;14.90;99.90
9103;DHT22;4587;51.434;6.788;2023-05-10T05:49:31;15.00;99.90
9103;DHT22;4587;51.434;6.788;2023-05-10T05:52:03;14.90;99.90
9103;DHT22;4587;51.434;6.788;2023-05-10T05:54:29;14.90;99.90
9103;DHT22;4587;51.434;6.788;2023-05-10T05:56:58;14.80;99.90
9103;DHT22;4587;51.434;6.788;2023-05-10T05:59:24;14.80;99.90
9103;DHT22;4587;51.434;6.788;2023-05-10T06:01:50;14.70;99.90
9103;DHT22;4587;51.434;6.788;2023-05-10T06:04:16;14.70;99.90
9103;DHT22;4587;51.434;6.788;2023-05-10T06:06:42;14.70;99.90
9103;DHT22;4587;51.434;6.788;2023-05-10T06:09:08;14.70;99.90
9103;DHT22;4587;51.434;6.788;2023-05-10T06:11:35;14.70;99.90
9103;DHT22;4587;51.434;6.788;2023-05-10T06:14:01;14.60;99.90
9103;DHT22;4587;51.434;6.788;2023-05-10T06:16:27;14.70;99.90
9103;DHT22;4587;51.434;6.788;2023-05-10T06:18:53;14.80;99.90
9103;DHT22;4587;51.434;6.788;2023-05-10T06:21:19;15.00;99.90
9103;DHT22;4587;51.434;6.788;2023-05-10T06:23:44;14.80;99.90
9103;DHT22;4587;51.434;6.788;2023-05-10T06:26:10;14.80;99.90
9103;DHT22;4587;51.434;6.788;2023-05-10T06:28:36;14.80;99.90
9103;DHT22;4587;51.434;6.788;2023-05-10T06:31:04;14.80;99.90
9103;DHT22;4587;51.434;6.788;2023-05-10T06:33:30;14.80;99.90
9103;DHT22;4587;51.434;6.788;2023-05-10T06:35:56;14.80;99.90
9103;DHT22;4587;51.434;6.788;2023-05-10T06:38:22;14.80;99.90
9103;DHT22;4587;51.434;6.788;2023-05-10T06:40:48;14.90;99.90
9103;DHT22;4587;51.434;6.788;2023-05-10T06:43:13;14.90;99.90
9103;DHT22;4587;51.434;6.788;2023-05-10T06:45:39;14.90;99.90
9103;DHT22;4587;51.434;6.788;2023-05-10T06:48:06;15.00;99.90
9103;DHT22;4587;51.434;6.788;2023-05-10T06:50:35;15.00;99.90
9103;DHT22;4587;51.434;6.788;2023-05-10T06:53:01;15.20;99.90
9103;DHT22;4587;51.434;6.788;2023-05-10T06:55:27;15.20;99.90
9103;DHT22;4587;51.434;6.788;2023-05-10T06:57:53;15.20;99.90
9103;DHT22;4587;51.434;6.788;2023-05-10T07:00:19;15.20;99.90
9103;DHT22;4587;51.434;6.788;2023-05-10T07:02:45;15.20;99.90
9103;DHT22;4587;51.434;6.788;2023-05-10T07:05:10;15.30;99.90
9103;DHT22;4587;51.434;6.788;2023-05-10T07:07:36;15.20;99.90
9103;DHT22;4587;51.434;6.788;2023-05-10T07:10:02;15.20;99.90
9103;DHT22;4587;51.434;6.788;2023-05-10T07:14:54;15.30;99.90
9103;DHT22;4587;51.434;6.788;2023-05-10T07:17:19;15.30;99.90
9103;DHT22;4587;51.434;6.788;2023-05-10T07:19:45;15.20;99.90
9103;DHT22;4587;51.434;6.788;2023-05-10T07:22:11;15.20;99.90
9103;DHT22;4587;51.434;6.788;2023-05-10T07:24:36;15.20;99.90
9103;DHT22;4587;51.434;6.788;2023-05-10T07:27:02;15.10;99.90
9103;DHT22;4587;51.434;6.788;2023-05-10T07:29:28;15.10;99.90
9103;DHT22;4587;51.434;6.788;2023-05-10T07:31:54;15.10;99.90
9103;DHT22;4587;51.434;6.788;2023-05-10T07:34:19;15.10;99.90
9103;DHT22;4587;51.434;6.788;2023-05-10T07:36:45;15.20;99.90
9103;DHT22;4587;51.434;6.788;2023-05-10T07:39:10;15.40;99.90
9103;DHT22;4587;51.434;6.788;2023-05-10T07:41:36;15.50;99.90
9103;DHT22;4587;51.434;6.788;2023-05-10T07:44:03;15.70;99.90
9103;DHT22;4587;51.434;6.788;2023-05-10T07:46:29;15.70;99.90
9103;DHT22;4587;51.434;6.788;2023-05-10T07:48:54;15.80;99.90
9103;DHT22;4587;51.434;6.788;2023-05-10T07:51:20;15.80;99.90
9103;DHT22;4587;51.434;6.788;2023-05-10T07:53:46;16.00;99.90
9103;DHT22;4587;51.434;6.788;2023-05-10T07:58:48;16.60;99.90
9103;DHT22;4587;51.434;6.788;2023-05-10T08:01:14;16.70;99.90
9103;DHT22;4587;51.434;6.788;2023-05-10T08:03:39;16.70;99.90
9103;DHT22;4587;51.434;6.788;2023-05-10T08:06:05;16.60;99.90
9103;DHT22;4587;51.434;6.788;2023-05-10T08:08:31;16.50;99.90
9103;DHT22;4587;51.434;6.788;2023-05-10T08:10:56;16.40;99.90
9103;DHT22;4587;51.434;6.788;2023-05-10T08:13:22;16.30;99.90
9103;DHT22;4587;51.434;6.788;2023-05-10T08:15:47;16.30;99.90
9103;DHT22;4587;51.434;6.788;2023-05-10T08:18:13;16.30;99.90
9103;DHT22;4587;51.434;6.788;2023-05-10T08:20:39;16.40;99.90
9103;DHT22;4587;51.434;6.788;2023-05-10T08:23:05;16.60;99.90
9103;DHT22;4587;51.434;6.788;2023-05-10T08:25:31;16.80;99.90
9103;DHT22;4587;51.434;6.788;2023-05-10T08:27:57;16.90;99.90
9103;DHT22;4587;51.434;6.788;2023-05-10T08:30:22;17.00;99.90
9103;DHT22;4587;51.434;6.788;2023-05-10T08:32:48;16.90;99.90
9103;DHT22;4587;51.434;6.788;2023-05-10T08:35:13;16.80;99.90
9103;DHT22;4587;51.434;6.788;2023-05-10T08:37:39;16.70;99.90
9103;DHT22;4587;51.434;6.788;2023-05-10T08:40:05;16.70;99.90
9103;DHT22;4587;51.434;6.788;2023-05-10T08:42:34;16.80;99.90
9103;DHT22;4587;51.434;6.788;2023-05-10T08:45:02;16.90;99.90
9103;DHT22;4587;51.434;6.788;2023-05-10T08:47:29;17.20;99.90
9103;DHT22;4587;51.434;6.788;2023-05-10T08:49:55;17.50;99.90
9103;DHT22;4587;51.434;6.788;2023-05-10T08:52:23;17.70;99.90
9103;DHT22;4587;51.434;6.788;2023-05-10T08:54:49;17.80;99.90
9103;DHT22;4587;51.434;6.788;2023-05-10T08:57:15;17.80;99.90
9103;DHT22;4587;51.434;6.788;2023-05-10T08:59:41;17.80;99.90
9103;DHT22;4587;51.434;6.788;2023-05-10T09:02:09;17.90;99.90
9103;DHT22;4587;51.434;6.788;2023-05-10T09:04:35;17.80;99.90
9103;DHT22;4587;51.434;6.788;2023-05-10T09:07:01;17.80;99.90
9103;DHT22;4587;51.434;6.788;2023-05-10T09:09:27;17.60;99.90
9103;DHT22;4587;51.434;6.788;2023-05-10T09:11:53;17.50;99.90
9103;DHT22;4587;51.434;6.788;2023-05-10T09:14:19;17.50;99.90
9103;DHT22;4587;51.434;6.788;2023-05-10T09:16:45;17.50;99.90
9103;DHT22;4587;51.434;6.788;2023-05-10T09:19:12;17.50;99.90
9103;DHT22;4587;51.434;6.788;2023-05-10T09:21:37;17.40;99.90
9103;DHT22;4587;51.434;6.788;2023-05-10T09:24:07;17.40;99.90
9103;DHT22;4587;51.434;6.788;2023-05-10T09:26:33;17.30;99.90
9103;DHT22;4587;51.434;6.788;2023-05-10T09:29:01;17.20;99.90
9103;DHT22;4587;51.434;6.788;2023-05-10T09:31:51;17.10;99.90
9103;DHT22;4587;51.434;6.788;2023-05-10T09:34:19;17.00;99.90
9103;DHT22;4587;51.434;6.788;2023-05-10T09:36:56;17.00;99.90
9103;DHT22;4587;51.434;6.788;2023-05-10T09:39:36;17.10;99.90
9103;DHT22;4587;51.434;6.788;2023-05-10T09:42:06;17.10;99.90
9103;DHT22;4587;51.434;6.788;2023-05-10T09:44:33;17.20;99.90
9103;DHT22;4587;51.434;6.788;2023-05-10T09:46:59;17.30;99.90
9103;DHT22;4587;51.434;6.788;2023-05-10T09:49:25;17.30;99.90
9103;DHT22;4587;51.434;6.788;2023-05-10T09:54:25;17.20;99.90
9103;DHT22;4587;51.434;6.788;2023-05-10T09:56:50;17.20;99.90
9103;DHT22;4587;51.434;6.788;2023-05-10T09:59:16;17.10;99.90
9103;DHT22;4587;51.434;6.788;2023-05-10T10:01:42;17.10;99.90
9103;DHT22;4587;51.434;6.788;2023-05-10T10:04:14;17.10;99.90
9103;DHT22;4587;51.434;6.788;2023-05-10T10:06:40;17.00;99.90
9103;DHT22;4587;51.434;6.788;2023-05-10T10:11:35;16.80;99.90
9103;DHT22;4587;51.434;6.788;2023-05-10T10:14:01;16.70;99.90
9103;DHT22;4587;51.434;6.788;2023-05-10T10:16:29;16.60;99.90
9103;DHT22;4587;51.434;6.788;2023-05-10T10:18:55;16.50;99.90
9103;DHT22;4587;51.434;6.788;2023-05-10T10:21:21;16.40;99.90
9103;DHT22;4587;51.434;6.788;2023-05-10T10:23:47;16.40;99.90
9103;DHT22;4587;51.434;6.788;2023-05-10T10:26:14;16.40;99.90
9103;DHT22;4587;51.434;6.788;2023-05-10T10:34:26;16.60;99.90
9103;DHT22;4587;51.434;6.788;2023-05-10T10:36:54;16.60;99.90
9103;DHT22;4587;51.434;6.788;2023-05-10T10:39:20;16.70;99.90
9103;DHT22;4587;51.434;6.788;2023-05-10T10:41:51;16.80;99.90
9103;DHT22;4587;51.434;6.788;2023-05-10T10:44:33;16.80;99.90
9103;DHT22;4587;51.434;6.788;2023-05-10T10:52:22;16.70;99.90
9103;DHT22;4587;51.434;6.788;2023-05-10T10:55:02;16.70;99.90
9103;DHT22;4587;51.434;6.788;2023-05-10T10:57:33;16.70;99.90
9103;DHT22;4587;51.434;6.788;2023-05-10T11:00:29;16.60;99.90
9103;DHT22;4587;51.434;6.788;2023-05-10T11:03:09;16.50;99.90
9103;DHT22;4587;51.434;6.788;2023-05-10T11:05:44;16.50;99.90
9103;DHT22;4587;51.434;6.788;2023-05-10T11:08:34;16.50;99.90
9103;DHT22;4587;51.434;6.788;2023-05-10T11:13:45;16.60;99.90
9103;DHT22;4587;51.434;6.788;2023-05-10T11:16:21;16.80;99.90
9103;DHT22;4587;51.434;6.788;2023-05-10T11:18:59;17.00;99.90
9103;DHT22;4587;51.434;6.788;2023-05-10T11:21:27;17.10;99.90
9103;DHT22;4587;51.434;6.788;2023-05-10T11:23:55;17.30;99.90
9103;DHT22;4587;51.434;6.788;2023-05-10T11:26:32;17.50;99.90
9103;DHT22;4587;51.434;6.788;2023-05-10T11:28:59;17.70;99.90
9103;DHT22;4587;51.434;6.788;2023-05-10T11:31:27;17.40;99.90
9103;DHT22;4587;51.434;6.788;2023-05-10T11:33:58;17.80;99.90
9103;DHT22;4587;51.434;6.788;2023-05-10T11:36:26;17.90;99.90
9103;DHT22;4587;51.434;6.788;2023-05-10T11:38:53;17.90;99.90
9103;DHT22;4587;51.434;6.788;2023-05-10T11:41:20;18.00;99.90
9103;DHT22;4587;51.434;6.788;2023-05-10T11:43:52;18.10;99.90
9103;DHT22;4587;51.434;6.788;2023-05-10T11:46:21;18.10;99.90
9103;DHT22;4587;51.434;6.788;2023-05-10T11:48:50;18.10;99.90
9103;DHT22;4587;51.434;6.788;2023-05-10T11:51:22;18.10;99.90
9103;DHT22;4587;51.434;6.788;2023-05-10T11:53:50;18.20;99.90
9103;DHT22;4587;51.434;6.788;2023-05-10T11:56:16;18.20;99.90
9103;DHT22;4587;51.434;6.788;2023-05-10T11:58:41;18.10;99.90
9103;DHT22;4587;51.434;6.788;2023-05-10T12:01:09;18.00;99.90
9103;DHT22;4587;51.434;6.788;2023-05-10T12:03:35;18.00;99.90
9103;DHT22;4587;51.434;6.788;2023-05-10T12:06:02;18.00;99.90
9103;DHT22;4587;51.434;6.788;2023-05-10T12:08:29;17.90;99.90
9103;DHT22;4587;51.434;6.788;2023-05-10T12:11:09;17.90;99.90
9103;DHT22;4587;51.434;6.788;2023-05-10T12:13:40;17.80;99.90
9103;DHT22;4587;51.434;6.788;2023-05-10T12:16:14;17.70;99.90
9103;DHT22;4587;51.434;6.788;2023-05-10T12:18:40;17.80;99.90
9103;DHT22;4587;51.434;6.788;2023-05-10T12:21:09;17.80;99.90
9103;DHT22;4587;51.434;6.788;2023-05-10T12:23:35;17.90;99.90
9103;DHT22;4587;51.434;6.788;2023-05-10T12:26:05;18.00;99.90
9103;DHT22;4587;51.434;6.788;2023-05-10T12:28:31;18.10;99.90
9103;DHT22;4587;51.434;6.788;2023-05-10T12:30:58;18.10;99.90
9103;DHT22;4587;51.434;6.788;2023-05-10T12:33:25;18.20;99.90
9103;DHT22;4587;51.434;6.788;2023-05-10T12:35:52;18.30;99.90
9103;DHT22;4587;51.434;6.788;2023-05-10T12:38:34;18.40;99.90
9103;DHT22;4587;51.434;6.788;2023-05-10T12:41:02;18.50;99.90
9103;DHT22;4587;51.434;6.788;2023-05-10T12:43:29;18.70;99.90
9103;DHT22;4587;51.434;6.788;2023-05-10T12:45:55;18.80;99.90
9103;DHT22;4587;51.434;6.788;2023-05-10T12:48:21;18.90;99.90
9103;DHT22;4587;51.434;6.788;2023-05-10T12:50:46;19.30;99.90
9103;DHT22;4587;51.434;6.788;2023-05-10T12:53:15;19.50;99.90
9103;DHT22;4587;51.434;6.788;2023-05-10T12:55:44;19.80;99.90
9103;DHT22;4587;51.434;6.788;2023-05-10T12:58:10;20.00;99.90
9103;DHT22;4587;51.434;6.788;2023-05-10T13:00:36;20.10;99.90
9103;DHT22;4587;51.434;6.788;2023-05-10T13:03:04;20.10;99.90
9103;DHT22;4587;51.434;6.788;2023-05-10T13:05:32;20.10;99.90
9103;DHT22;4587;51.434;6.788;2023-05-10T13:07:57;20.00;99.90
9103;DHT22;4587;51.434;6.788;2023-05-10T13:10:23;20.00;99.90
9103;DHT22;4587;51.434;6.788;2023-05-10T13:12:49;20.00;99.90
9103;DHT22;4587;51.434;6.788;2023-05-10T13:15:14;20.00;99.90
9103;DHT22;4587;51.434;6.788;2023-05-10T13:17:40;19.90;99.90
9103;DHT22;4587;51.434;6.788;2023-05-10T13:20:08;19.90;99.90
9103;DHT22;4587;51.434;6.788;2023-05-10T13:22:34;19.90;99.90
9103;DHT22;4587;51.434;6.788;2023-05-10T13:25:00;19.80;99.90
9103;DHT22;4587;51.434;6.788;2023-05-10T13:27:26;19.80;99.90
9103;DHT22;4587;51.434;6.788;2023-05-10T13:29:51;19.90;99.90
9103;DHT22;4587;51.434;6.788;2023-05-10T13:32:17;19.90;99.90
9103;DHT22;4587;51.434;6.788;2023-05-10T13:34:43;19.90;99.90
9103;DHT22;4587;51.434;6.788;2023-05-10T13:37:08;19.90;99.90
9103;DHT22;4587;51.434;6.788;2023-05-10T13:39:34;19.80;99.90
9103;DHT22;4587;51.434;6.788;2023-05-10T13:42:00;19.80;99.90
9103;DHT22;4587;51.434;6.788;2023-05-10T13:44:25;19.80;99.90
9103;DHT22;4587;51.434;6.788;2023-05-10T13:46:51;19.90;99.90
9103;DHT22;4587;51.434;6.788;2023-05-10T13:49:17;20.20;99.90
9103;DHT22;4587;51.434;6.788;2023-05-10T13:51:43;20.20;99.90
9103;DHT22;4587;51.434;6.788;2023-05-10T13:54:09;20.30;99.90
9103;DHT22;4587;51.434;6.788;2023-05-10T13:56:34;20.40;99.90
9103;DHT22;4587;51.434;6.788;2023-05-10T13:59:00;20.40;99.90
9103;DHT22;4587;51.434;6.788;2023-05-10T14:01:26;20.40;99.90
9103;DHT22;4587;51.434;6.788;2023-05-10T14:03:51;20.40;99.90
9103;DHT22;4587;51.434;6.788;2023-05-10T14:06:17;20.30;99.90
9103;DHT22;4587;51.434;6.788;2023-05-10T14:08:42;20.00;99.90
9103;DHT22;4587;51.434;6.788;2023-05-10T14:11:08;20.00;99.90
9103;DHT22;4587;51.434;6.788;2023-05-10T14:13:34;20.00;99.90
9103;DHT22;4587;51.434;6.788;2023-05-10T14:15:59;19.90;99.90
9103;DHT22;4587;51.434;6.788;2023-05-10T14:18:26;19.80;99.90
9103;DHT22;4587;51.434;6.788;2023-05-10T14:20:52;19.80;99.90
9103;DHT22;4587;51.434;6.788;2023-05-10T14:23:18;19.80;99.90
9103;DHT22;4587;51.434;6.788;2023-05-10T14:25:45;19.90;99.90
9103;DHT22;4587;51.434;6.788;2023-05-10T14:28:10;20.20;99.90
9103;DHT22;4587;51.434;6.788;2023-05-10T14:30:37;20.20;99.90
9103;DHT22;4587;51.434;6.788;2023-05-10T14:33:03;19.10;99.90
9103;DHT22;4587;51.434;6.788;2023-05-10T14:35:28;21.00;99.90
9103;DHT22;4587;51.434;6.788;2023-05-10T14:37:56;20.30;99.90
9103;DHT22;4587;51.434;6.788;2023-05-10T14:40:22;20.30;99.90
9103;DHT22;4587;51.434;6.788;2023-05-10T14:42:48;20.80;99.90
9103;DHT22;4587;51.434;6.788;2023-05-10T14:45:13;20.90;99.90
9103;DHT22;4587;51.434;6.788;2023-05-10T14:47:39;20.10;99.90
9103;DHT22;4587;51.434;6.788;2023-05-10T14:50:05;20.20;99.90
9103;DHT22;4587;51.434;6.788;2023-05-10T14:52:31;19.40;99.90
9103;DHT22;4587;51.434;6.788;2023-05-10T14:54:56;19.90;99.90
9103;DHT22;4587;51.434;6.788;2023-05-10T14:57:24;19.80;99.90
9103;DHT22;4587;51.434;6.788;2023-05-10T14:59:49;19.70;99.90
9103;DHT22;4587;51.434;6.788;2023-05-10T15:02:15;19.70;99.90
9103;DHT22;4587;51.434;6.788;2023-05-10T15:04:41;19.90;99.90
9103;DHT22;4587;51.434;6.788;2023-05-10T15:07:07;20.60;99.90
9103;DHT22;4587;51.434;6.788;2023-05-10T15:09:32;20.10;99.90
9103;DHT22;4587;51.434;6.788;2023-05-10T15:11:58;20.00;99.90
9103;DHT22;4587;51.434;6.788;2023-05-10T15:14:23;20.00;99.90
9103;DHT22;4587;51.434;6.788;2023-05-10T15:16:49;19.90;99.90
9103;DHT22;4587;51.434;6.788;2023-05-10T15:19:14;19.80;99.90
9103;DHT22;4587;51.434;6.788;2023-05-10T15:21:40;19.70;99.90
9103;DHT22;4587;51.434;6.788;2023-05-10T15:24:08;19.60;99.90
9103;DHT22;4587;51.434;6.788;2023-05-10T15:26:34;19.50;99.90
9103;DHT22;4587;51.434;6.788;2023-05-10T15:29:00;19.50;99.90
9103;DHT22;4587;51.434;6.788;2023-05-10T15:31:26;19.40;99.90
9103;DHT22;4587;51.434;6.788;2023-05-10T15:33:57;19.50;99.90
9103;DHT22;4587;51.434;6.788;2023-05-10T15:36:22;19.00;99.90
9103;DHT22;4587;51.434;6.788;2023-05-10T15:38:48;19.10;99.90
9103;DHT22;4587;51.434;6.788;2023-05-10T15:41:13;19.50;99.90
9103;DHT22;4587;51.434;6.788;2023-05-10T15:43:39;18.60;99.90
9103;DHT22;4587;51.434;6.788;2023-05-10T15:46:04;18.30;99.90
9103;DHT22;4587;51.434;6.788;2023-05-10T15:48:31;18.20;99.90
9103;DHT22;4587;51.434;6.788;2023-05-10T15:50:56;18.00;99.90
9103;DHT22;4587;51.434;6.788;2023-05-10T15:53:22;17.90;99.90
9103;DHT22;4587;51.434;6.788;2023-05-10T15:55:47;17.90;99.90
9103;DHT22;4587;51.434;6.788;2023-05-10T15:58:13;17.50;99.90
9103;DHT22;4587;51.434;6.788;2023-05-10T16:00:39;17.50;99.90
9103;DHT22;4587;51.434;6.788;2023-05-10T16:03:05;17.30;99.90
9103;DHT22;4587;51.434;6.788;2023-05-10T16:05:31;17.00;99.90
9103;DHT22;4587;51.434;6.788;2023-05-10T16:07:58;16.90;99.90
9103;DHT22;4587;51.434;6.788;2023-05-10T16:10:24;16.70;99.90
9103;DHT22;4587;51.434;6.788;2023-05-10T16:12:49;16.50;99.90
9103;DHT22;4587;51.434;6.788;2023-05-10T16:15:15;16.90;99.90
9103;DHT22;4587;51.434;6.788;2023-05-10T16:17:41;16.20;99.90
9103;DHT22;4587;51.434;6.788;2023-05-10T16:20:07;16.10;99.90
9103;DHT22;4587;51.434;6.788;2023-05-10T16:22:32;16.10;99.90
9103;DHT22;4587;51.434;6.788;2023-05-10T16:24:58;16.00;99.90
9103;DHT22;4587;51.434;6.788;2023-05-10T16:27:24;16.00;99.90
9103;DHT22;4587;51.434;6.788;2023-05-10T16:29:51;16.00;99.90
9103;DHT22;4587;51.434;6.788;2023-05-10T16:32:16;15.90;99.90